createdAt,value
2022-10-08T00:01:29.740Z,55.79
2022-10-08T00:03:57.800Z,56.01
2022-10-08T00:06:28.176Z,56.29
2022-10-08T00:08:57.597Z,53.87
2022-10-08T00:11:27.129Z,53.90
2022-10-08T00:13:57.295Z,55.60
2022-10-08T00:16:27.684Z,56.44
2022-10-08T00:18:59.326Z,53.40
2022-10-08T00:21:29.896Z,53.74
2022-10-08T00:23:58.899Z,56.03
2022-10-08T00:26:28.919Z,55.58
2022-10-08T00:29:01.563Z,54.09
2022-10-08T00:31:32.434Z,54.42
2022-10-08T00:34:02.117Z,56.45
2022-10-08T00:36:32.581Z,55.68
2022-10-08T00:39:02.572Z,54.75
2022-10-08T00:41:33.121Z,55.23
2022-10-08T00:44:03.297Z,56.12
2022-10-08T00:46:36.497Z,56.88
2022-10-08T00:49:06.078Z,56.32
2022-10-08T00:51:34.775Z,57.36
2022-10-08T00:54:03.664Z,56.38
2022-10-08T00:56:32.416Z,56.48
2022-10-08T00:59:00.381Z,57.63
2022-10-08T01:01:29.988Z,56.83
2022-10-08T01:03:58.436Z,55.83
2022-10-08T01:06:28.295Z,53.81
2022-10-08T01:09:00.846Z,55.97
2022-10-08T01:11:35.055Z,55.68
2022-10-08T01:14:05.533Z,57.44
2022-10-08T01:16:40.788Z,54.65
2022-10-08T01:19:17.017Z,56.65
2022-10-08T01:21:48.237Z,56.10
2022-10-08T01:24:47.881Z,56.26
2022-10-08T01:27:20.733Z,58.35
2022-10-08T01:29:50.017Z,55.94
2022-10-08T01:32:20.443Z,57.04
2022-10-08T01:34:51.106Z,56.96
2022-10-08T01:37:24.065Z,55.30
2022-10-08T01:39:53.515Z,55.34
2022-10-08T01:42:24.104Z,57.38
2022-10-08T01:44:54.639Z,58.80
2022-10-08T01:47:24.050Z,58.00
2022-10-08T01:49:54.773Z,56.69
2022-10-08T01:52:25.327Z,56.63
2022-10-08T01:54:56.238Z,55.04
2022-10-08T01:57:27.648Z,56.98
2022-10-08T02:00:00.320Z,55.48
2022-10-08T02:02:28.214Z,57.19
2022-10-08T02:04:59.607Z,55.87
2022-10-08T02:07:29.070Z,56.33
2022-10-08T02:10:03.690Z,58.77
2022-10-08T02:12:32.881Z,54.85
2022-10-08T02:15:01.001Z,57.56
2022-10-08T02:17:36.253Z,55.69
2022-10-08T02:20:06.778Z,54.70
2022-10-08T02:22:40.088Z,57.26
2022-10-08T02:25:11.277Z,56.97
2022-10-08T02:27:51.778Z,58.17
2022-10-08T02:30:20.247Z,56.70
2022-10-08T02:32:54.717Z,58.62
2022-10-08T02:35:27.690Z,57.14
2022-10-08T02:38:01.028Z,56.45
2022-10-08T02:40:31.546Z,57.98
2022-10-08T02:43:06.305Z,58.10
2022-10-08T02:45:42.539Z,60.42
2022-10-08T02:48:20.399Z,58.64
2022-10-08T02:50:52.527Z,56.36
2022-10-08T02:53:23.002Z,57.06
2022-10-08T02:56:01.694Z,57.33
2022-10-08T02:58:31.517Z,56.02
2022-10-08T03:01:04.745Z,56.77
2022-10-08T03:03:35.637Z,56.50
2022-10-08T03:06:07.801Z,55.74
2022-10-08T03:08:38.325Z,56.91
2022-10-08T03:11:06.736Z,55.77
2022-10-08T03:13:39.653Z,58.66
2022-10-08T03:16:10.026Z,55.24
2022-10-08T03:18:39.322Z,58.54
2022-10-08T03:21:09.955Z,55.93
2022-10-08T03:23:37.922Z,56.05
2022-10-08T03:26:06.192Z,56.58
2022-10-08T03:28:34.369Z,57.80
2022-10-08T03:31:06.827Z,57.95
2022-10-08T03:33:34.931Z,56.97
2022-10-08T03:36:03.094Z,55.32
2022-10-08T03:38:31.059Z,57.73
2022-10-08T03:41:00.246Z,55.49
2022-10-08T03:43:32.989Z,55.62
2022-10-08T03:46:01.204Z,57.35
2022-10-08T03:48:30.799Z,54.73
2022-10-08T03:51:00.690Z,56.29
2022-10-08T03:53:29.738Z,57.62
2022-10-08T03:55:57.611Z,57.55
2022-10-08T03:58:25.605Z,55.86
2022-10-08T04:01:00.980Z,56.45
2022-10-08T04:03:32.210Z,56.75
2022-10-08T04:06:00.773Z,55.97
2022-10-08T04:08:28.922Z,56.68
2022-10-08T04:10:56.845Z,57.21
2022-10-08T04:13:24.740Z,57.75
2022-10-08T04:15:52.750Z,60.21
2022-10-08T04:18:20.684Z,60.82
2022-10-08T04:20:50.017Z,61.88
2022-10-08T04:23:17.967Z,61.31
2022-10-08T04:25:51.073Z,59.65
2022-10-08T04:28:19.348Z,58.69
2022-10-08T04:30:56.219Z,56.39
2022-10-08T04:33:24.583Z,59.30
2022-10-08T04:35:59.936Z,57.69
2022-10-08T04:38:29.383Z,55.06
2022-10-08T04:41:05.152Z,57.34
2022-10-08T04:43:33.153Z,59.39
2022-10-08T04:46:01.059Z,55.80
2022-10-08T04:48:29.286Z,59.09
2022-10-08T04:51:00.656Z,57.62
2022-10-08T04:53:29.045Z,55.31
2022-10-08T04:55:57.836Z,56.20
2022-10-08T04:58:27.224Z,57.44
2022-10-08T05:00:55.162Z,57.16
2022-10-08T05:03:23.040Z,58.45
2022-10-08T05:05:51.274Z,60.25
2022-10-08T05:08:20.625Z,56.48
2022-10-08T05:10:51.811Z,58.28
2022-10-08T05:13:19.776Z,54.88
2022-10-08T05:15:48.580Z,58.83
2022-10-08T05:18:16.780Z,61.06
2022-10-08T05:20:44.740Z,57.16
2022-10-08T05:23:12.699Z,58.09
2022-10-08T05:25:42.015Z,57.57
2022-10-08T05:28:10.080Z,58.15
2022-10-08T05:30:37.992Z,56.01
2022-10-08T05:33:05.922Z,58.11
2022-10-08T05:35:36.010Z,58.22
2022-10-08T05:38:03.954Z,56.88
2022-10-08T05:40:31.951Z,58.74
2022-10-08T05:43:01.492Z,56.79
2022-10-08T05:45:29.392Z,57.24
2022-10-08T05:47:57.363Z,58.31
2022-10-08T05:50:25.287Z,61.23
2022-10-08T05:52:53.743Z,61.63
2022-10-08T05:55:21.682Z,60.06
2022-10-08T05:57:49.619Z,59.91
2022-10-08T06:00:19.979Z,59.04
2022-10-08T06:02:50.962Z,58.53
2022-10-08T06:05:19.024Z,56.94
2022-10-08T06:07:47.130Z,58.13
2022-10-08T06:10:15.079Z,58.77
2022-10-08T06:12:43.011Z,58.26
2022-10-08T06:15:11.209Z,58.92
2022-10-08T06:17:40.479Z,57.89
2022-10-08T06:20:09.295Z,57.28
2022-10-08T06:22:37.234Z,57.90
2022-10-08T06:25:05.728Z,59.43
2022-10-08T06:27:33.627Z,59.29
2022-10-08T06:30:01.663Z,60.12
2022-10-08T06:32:29.610Z,58.54
2022-10-08T06:34:59.000Z,59.31
2022-10-08T06:37:26.708Z,58.34
2022-10-08T06:39:54.581Z,57.73
2022-10-08T06:42:22.360Z,59.15
2022-10-08T06:44:50.482Z,57.72
2022-10-08T06:47:18.399Z,58.89
2022-10-08T06:49:46.269Z,58.22
2022-10-08T06:52:15.539Z,57.98
2022-10-08T06:54:43.485Z,59.70
2022-10-08T06:57:11.428Z,58.75
2022-10-08T06:59:39.348Z,58.67
2022-10-08T07:02:07.593Z,60.08
2022-10-08T07:04:35.527Z,59.14
2022-10-08T07:07:03.442Z,58.12
2022-10-08T07:09:32.821Z,59.21
2022-10-08T07:12:00.722Z,57.78
2022-10-08T07:14:28.980Z,58.06
2022-10-08T07:16:56.772Z,58.42
2022-10-08T07:19:24.581Z,58.39
2022-10-08T07:21:52.285Z,58.22
2022-10-08T07:24:20.011Z,57.21
2022-10-08T07:26:51.858Z,57.03
2022-10-08T07:29:19.659Z,58.25
2022-10-08T07:31:47.374Z,57.70
2022-10-08T07:34:15.169Z,57.21
2022-10-08T07:36:42.898Z,57.50
2022-10-08T07:39:12.654Z,57.51
2022-10-08T07:41:40.401Z,56.98
2022-10-08T07:44:10.827Z,55.63
2022-10-08T07:46:39.291Z,57.95
2022-10-08T07:49:06.963Z,57.26
2022-10-08T07:51:36.357Z,57.14
2022-10-08T07:54:06.726Z,56.68
2022-10-08T07:56:36.243Z,57.63
2022-10-08T07:59:05.402Z,57.72
2022-10-08T08:01:35.660Z,56.55
2022-10-08T08:04:05.311Z,57.25
2022-10-08T08:06:34.638Z,54.88
2022-10-08T08:09:03.094Z,54.45
2022-10-08T08:11:31.446Z,53.50
2022-10-08T08:13:59.379Z,55.20
2022-10-08T08:16:29.268Z,54.84
2022-10-08T08:19:01.324Z,55.31
2022-10-08T08:21:32.027Z,54.80
2022-10-08T08:24:04.994Z,56.50
2022-10-08T08:26:35.884Z,56.45
2022-10-08T08:29:06.595Z,56.04
2022-10-08T08:31:36.280Z,56.38
2022-10-08T08:34:08.839Z,55.09
2022-10-08T08:36:37.939Z,55.40
2022-10-08T08:39:06.897Z,56.73
2022-10-08T08:41:39.397Z,53.42
2022-10-08T08:44:10.790Z,55.25
2022-10-08T08:46:41.134Z,54.03
2022-10-08T08:49:15.408Z,54.42
2022-10-08T08:51:43.167Z,53.87
2022-10-08T08:54:10.926Z,54.18
2022-10-08T08:56:38.912Z,55.21
2022-10-08T08:59:24.097Z,54.95
2022-10-08T09:01:52.267Z,52.70
2022-10-08T09:04:27.314Z,54.95
2022-10-08T09:06:56.456Z,54.09
2022-10-08T09:09:26.473Z,55.04
2022-10-08T09:11:54.774Z,52.14
2022-10-08T09:14:28.887Z,54.65
2022-10-08T09:16:57.510Z,54.08
2022-10-08T09:19:26.697Z,53.13
2022-10-08T09:21:54.411Z,53.78
2022-10-08T09:24:22.376Z,50.71
2022-10-08T09:26:51.043Z,53.31
2022-10-08T09:29:31.306Z,53.23
2022-10-08T09:31:59.202Z,52.37
2022-10-08T09:34:28.305Z,51.76
2022-10-08T09:37:04.555Z,49.65
2022-10-08T09:39:33.146Z,47.83
2022-10-08T09:42:13.198Z,48.11
2022-10-08T09:44:42.061Z,46.12
2022-10-08T09:47:12.135Z,45.61
2022-10-08T09:49:41.351Z,47.40
2022-10-08T09:52:17.111Z,47.02
2022-10-08T09:54:48.766Z,46.16
2022-10-08T09:57:17.507Z,43.64
2022-10-08T09:59:50.726Z,45.02
2022-10-08T10:02:27.582Z,44.81
2022-10-08T10:04:57.385Z,46.19
2022-10-08T10:07:25.725Z,47.10
2022-10-08T10:09:57.601Z,45.43
2022-10-08T10:12:27.143Z,45.67
2022-10-08T10:14:57.393Z,44.82
2022-10-08T10:17:32.347Z,44.79
2022-10-08T10:20:04.790Z,46.48
2022-10-08T10:22:34.813Z,45.62
2022-10-08T10:25:04.500Z,43.09
2022-10-08T10:27:35.167Z,43.65
2022-10-08T10:30:15.148Z,43.48
2022-10-08T10:32:50.791Z,43.76
2022-10-08T10:35:21.874Z,42.88
2022-10-08T10:37:52.123Z,42.54
2022-10-08T10:40:41.096Z,42.49
2022-10-08T10:43:18.964Z,44.91
2022-10-08T10:45:49.831Z,42.21
2022-10-08T10:48:17.660Z,42.17
2022-10-08T10:50:51.594Z,43.81
2022-10-08T10:53:23.110Z,43.88
2022-10-08T10:55:58.502Z,42.08
2022-10-08T10:58:33.129Z,42.09
2022-10-08T11:01:06.379Z,42.41
2022-10-08T11:03:39.523Z,42.08
2022-10-08T11:06:20.356Z,43.31
2022-10-08T11:08:52.820Z,42.70
2022-10-08T11:11:29.589Z,43.25
2022-10-08T11:14:07.420Z,44.65
2022-10-08T11:16:42.287Z,43.28
2022-10-08T11:19:15.695Z,42.20
2022-10-08T11:21:49.397Z,43.26
2022-10-08T11:24:28.667Z,41.34
2022-10-08T11:27:00.207Z,41.32
2022-10-08T11:29:35.239Z,41.64
2022-10-08T11:32:03.380Z,43.37
2022-10-08T11:34:33.182Z,42.36
2022-10-08T11:37:07.902Z,41.60
2022-10-08T11:39:41.979Z,40.49
2022-10-08T11:42:14.988Z,43.28
2022-10-08T11:44:42.805Z,41.20
2022-10-08T11:47:29.322Z,42.46
2022-10-08T11:49:57.101Z,41.92
2022-10-08T11:52:29.787Z,42.42
2022-10-08T11:54:57.929Z,42.21
2022-10-08T11:57:49.309Z,42.37
2022-10-08T12:00:33.353Z,41.83
2022-10-08T12:03:02.019Z,40.06
2022-10-08T12:05:35.193Z,43.37
2022-10-08T12:08:06.300Z,41.72
2022-10-08T12:10:35.197Z,41.00
2022-10-08T12:13:22.499Z,41.40
2022-10-08T12:15:57.644Z,42.81
2022-10-08T12:18:43.361Z,42.15
2022-10-08T12:21:38.105Z,39.90
2022-10-08T12:24:20.672Z,42.37
2022-10-08T12:27:12.126Z,43.27
2022-10-08T12:29:55.440Z,40.53
2022-10-08T12:32:24.365Z,40.83
2022-10-08T12:34:52.490Z,41.95
2022-10-08T12:37:28.518Z,42.52
2022-10-08T12:39:56.873Z,43.65
2022-10-08T12:42:27.685Z,43.02
2022-10-08T12:45:04.568Z,40.44
2022-10-08T12:47:37.377Z,42.51
2022-10-08T12:50:12.767Z,41.90
2022-10-08T12:52:40.685Z,43.35
2022-10-08T12:55:16.079Z,42.51
2022-10-08T12:57:44.554Z,40.90
2022-10-08T13:00:21.770Z,42.29
2022-10-08T13:03:00.451Z,40.15
2022-10-08T13:05:33.575Z,39.59
2022-10-08T13:08:25.560Z,42.04
2022-10-08T13:10:53.345Z,40.52
2022-10-08T13:13:34.708Z,40.38
2022-10-08T13:16:05.165Z,40.73
2022-10-08T13:18:33.512Z,40.39
2022-10-08T13:21:02.098Z,41.42
2022-10-08T13:23:34.730Z,40.01
2022-10-08T13:26:02.537Z,40.32
2022-10-08T13:28:58.564Z,41.53
2022-10-08T13:31:24.304Z,38.78
2022-10-08T13:33:52.503Z,40.14
2022-10-08T13:36:22.075Z,39.83
2022-10-08T13:38:49.880Z,40.03
2022-10-08T13:41:23.435Z,39.57
2022-10-08T13:43:51.267Z,40.29
2022-10-08T13:46:19.001Z,42.77
2022-10-08T13:48:48.219Z,40.67
2022-10-08T13:51:15.953Z,38.87
2022-10-08T13:53:45.598Z,39.96
2022-10-08T13:56:13.612Z,43.03
2022-10-08T13:58:41.565Z,39.89
2022-10-08T14:01:09.592Z,39.54
2022-10-08T14:03:37.556Z,44.65
2022-10-08T14:06:07.389Z,44.35
2022-10-08T14:08:36.059Z,39.76
2022-10-08T14:11:03.994Z,38.21
2022-10-08T14:13:32.001Z,47.41
2022-10-08T14:15:59.967Z,41.23
2022-10-08T14:18:27.767Z,41.75
2022-10-08T14:20:55.494Z,37.93
2022-10-08T14:23:24.626Z,40.02
2022-10-08T14:25:52.456Z,39.05
2022-10-08T14:28:20.266Z,39.52
2022-10-08T14:30:48.062Z,39.05
2022-10-08T14:33:15.871Z,39.77
2022-10-08T14:35:43.684Z,39.56
2022-10-08T14:38:11.553Z,39.69
2022-10-08T14:40:40.583Z,39.88
2022-10-08T14:43:08.350Z,42.55
2022-10-08T14:45:36.270Z,39.64
2022-10-08T14:48:04.074Z,40.13
2022-10-08T14:50:31.834Z,41.06
2022-10-08T14:52:59.654Z,39.31
2022-10-08T14:55:27.420Z,39.72
2022-10-08T14:57:56.515Z,37.77
2022-10-08T15:00:24.214Z,38.59
2022-10-08T15:02:53.423Z,37.95
2022-10-08T15:05:21.188Z,38.22
2022-10-08T15:07:49.365Z,39.06
2022-10-08T15:10:17.237Z,37.06
2022-10-08T15:12:45.728Z,36.68
2022-10-08T15:15:15.067Z,37.33
2022-10-08T15:17:45.964Z,40.41
2022-10-08T15:20:14.091Z,39.33
2022-10-08T15:22:41.949Z,39.34
2022-10-08T15:25:11.186Z,38.83
2022-10-08T15:27:38.951Z,38.38
2022-10-08T15:30:07.211Z,39.72
2022-10-08T15:32:37.214Z,39.54
2022-10-08T15:35:05.147Z,40.09
2022-10-08T15:37:32.906Z,39.17
2022-10-08T15:40:00.678Z,39.86
2022-10-08T15:42:28.383Z,40.60
2022-10-08T15:44:56.175Z,39.69
2022-10-08T15:47:23.902Z,39.79
2022-10-08T15:49:53.050Z,40.76
2022-10-08T15:52:21.930Z,39.37
2022-10-08T15:54:49.695Z,39.51
2022-10-08T15:57:18.382Z,42.25
2022-10-08T15:59:46.080Z,41.46
2022-10-08T16:02:17.445Z,40.79
2022-10-08T16:04:46.750Z,42.97
2022-10-08T16:07:15.914Z,40.92
2022-10-08T16:09:43.675Z,44.52
2022-10-08T16:12:11.502Z,43.56
2022-10-08T16:14:39.260Z,44.88
2022-10-08T16:17:07.065Z,46.79
2022-10-08T16:19:34.928Z,42.67
2022-10-08T16:22:02.658Z,39.97
2022-10-08T16:24:31.841Z,41.47
2022-10-08T16:26:59.542Z,44.76
2022-10-08T16:29:27.437Z,45.81
2022-10-08T16:31:55.195Z,44.90
2022-10-08T16:34:24.183Z,46.72
2022-10-08T16:36:52.014Z,46.42
2022-10-08T16:39:20.846Z,47.27
2022-10-08T16:41:50.386Z,47.36
2022-10-08T16:44:19.383Z,44.00
2022-10-08T16:46:50.407Z,43.95
2022-10-08T16:49:24.279Z,47.41
2022-10-08T16:51:53.529Z,47.66
2022-10-08T16:54:21.304Z,47.66
2022-10-08T16:56:50.927Z,47.30
2022-10-08T16:59:21.341Z,46.50
2022-10-08T17:01:50.244Z,48.61
2022-10-08T17:04:18.539Z,49.26
2022-10-08T17:06:46.659Z,50.10
2022-10-08T17:09:14.453Z,46.86
2022-10-08T17:11:42.250Z,47.51
2022-10-08T17:14:11.888Z,47.86
2022-10-08T17:16:40.265Z,47.26
2022-10-08T17:19:08.056Z,49.02
2022-10-08T17:21:35.851Z,49.57
2022-10-08T17:24:03.788Z,48.00
2022-10-08T17:26:31.755Z,49.77
2022-10-08T17:29:03.123Z,50.35
2022-10-08T17:31:32.715Z,49.00
2022-10-08T17:34:00.794Z,51.26
2022-10-08T17:36:29.365Z,49.80
2022-10-08T17:38:58.139Z,50.77
2022-10-08T17:41:27.431Z,50.00
2022-10-08T17:43:56.710Z,50.73
2022-10-08T17:46:25.459Z,49.20
2022-10-08T17:48:54.988Z,49.84
2022-10-08T17:51:24.589Z,49.45
2022-10-08T17:53:53.359Z,51.98
2022-10-08T17:56:21.863Z,50.75
2022-10-08T17:58:50.023Z,49.68
2022-10-08T18:01:18.802Z,52.17
2022-10-08T18:03:51.382Z,51.08
2022-10-08T18:06:20.537Z,52.08
2022-10-08T18:08:48.285Z,50.43
2022-10-08T18:11:17.576Z,50.21
2022-10-08T18:13:45.287Z,51.00
2022-10-08T18:16:13.885Z,52.16
2022-10-08T18:18:42.041Z,52.44
2022-10-08T18:21:10.960Z,52.53
2022-10-08T18:23:41.899Z,51.71
2022-10-08T18:26:10.931Z,53.20
2022-10-08T18:28:38.715Z,52.39
2022-10-08T18:31:08.180Z,52.19
2022-10-08T18:33:36.642Z,52.63
2022-10-08T18:36:07.975Z,53.51
2022-10-08T18:38:35.861Z,53.00
2022-10-08T18:41:12.201Z,54.19
2022-10-08T18:43:40.148Z,52.32
2022-10-08T18:46:08.074Z,53.47
2022-10-08T18:48:36.114Z,51.82
2022-10-08T18:51:05.358Z,53.29
2022-10-08T18:53:33.972Z,52.86
2022-10-08T18:56:01.776Z,53.25
2022-10-08T18:58:30.907Z,53.29
2022-10-08T19:00:59.092Z,53.61
2022-10-08T19:03:26.833Z,52.96
2022-10-08T19:05:54.600Z,52.96
2022-10-08T19:08:22.318Z,53.43
2022-10-08T19:10:50.068Z,53.63
2022-10-08T19:13:17.990Z,53.05
2022-10-08T19:15:47.338Z,52.83
2022-10-08T19:18:15.063Z,53.64
2022-10-08T19:20:42.838Z,52.56
2022-10-08T19:23:10.617Z,51.67
2022-10-08T19:25:38.396Z,52.23
2022-10-08T19:28:06.207Z,51.90
2022-10-08T19:30:35.295Z,53.37
2022-10-08T19:33:04.738Z,52.30
2022-10-08T19:35:32.635Z,53.72
2022-10-08T19:38:00.582Z,54.12
2022-10-08T19:40:28.497Z,54.94
2022-10-08T19:42:56.431Z,53.85
2022-10-08T19:45:24.430Z,53.81
2022-10-08T19:47:52.428Z,53.96
2022-10-08T19:50:21.716Z,53.66
2022-10-08T19:52:51.880Z,52.67
2022-10-08T19:55:19.978Z,53.13
2022-10-08T19:57:47.885Z,54.84
2022-10-08T20:00:16.407Z,54.32
2022-10-08T20:02:44.375Z,53.67
2022-10-08T20:05:12.361Z,53.74
2022-10-08T20:07:41.688Z,54.87
2022-10-08T20:10:09.663Z,53.33
2022-10-08T20:12:37.428Z,53.76
2022-10-08T20:15:08.102Z,52.54
2022-10-08T20:17:35.985Z,54.84
2022-10-08T20:20:21.021Z,54.82
2022-10-08T20:22:54.338Z,53.11
2022-10-08T20:25:22.327Z,52.71
2022-10-08T20:27:50.096Z,54.24
2022-10-08T20:30:17.826Z,55.13
2022-10-08T20:32:45.891Z,54.40
2022-10-08T20:35:13.910Z,52.85
2022-10-08T20:37:41.832Z,53.77
2022-10-08T20:40:11.545Z,54.35
2022-10-08T20:42:39.311Z,54.42
2022-10-08T20:45:08.307Z,55.31
2022-10-08T20:47:35.994Z,53.27
2022-10-08T20:50:03.755Z,53.07
2022-10-08T20:52:31.818Z,54.66
2022-10-08T20:54:59.755Z,53.30
2022-10-08T20:57:29.063Z,55.06
2022-10-08T20:59:57.411Z,54.27
2022-10-08T21:02:26.529Z,54.97
2022-10-08T21:04:54.582Z,54.93
2022-10-08T21:07:22.450Z,55.82
2022-10-08T21:09:52.502Z,53.48
2022-10-08T21:12:20.459Z,54.84
2022-10-08T21:14:49.951Z,54.13
2022-10-08T21:17:17.905Z,54.78
2022-10-08T21:19:48.822Z,54.86
2022-10-08T21:22:16.917Z,53.00
2022-10-08T21:24:45.237Z,53.36
2022-10-08T21:27:13.209Z,54.79
2022-10-08T21:29:41.096Z,54.75
2022-10-08T21:32:10.512Z,54.59
2022-10-08T21:34:38.383Z,55.42
2022-10-08T21:37:06.870Z,54.72
2022-10-08T21:39:37.421Z,54.95
2022-10-08T21:42:05.489Z,54.48
2022-10-08T21:44:33.400Z,55.25
2022-10-08T21:47:01.299Z,54.93
2022-10-08T21:49:30.677Z,54.97
2022-10-08T21:51:58.655Z,55.22
2022-10-08T21:54:26.674Z,53.52
2022-10-08T21:56:54.621Z,55.38
2022-10-08T21:59:22.535Z,54.01
2022-10-08T22:01:51.747Z,53.82
2022-10-08T22:04:20.543Z,53.27
2022-10-08T22:06:50.397Z,55.09
2022-10-08T22:09:19.248Z,54.21
2022-10-08T22:11:47.071Z,54.17
2022-10-08T22:14:15.287Z,52.19
2022-10-08T22:16:43.348Z,52.33
2022-10-08T22:19:11.290Z,52.12
2022-10-08T22:21:39.394Z,52.00
2022-10-08T22:24:08.838Z,53.51
2022-10-08T22:28:33.278Z,54.22
2022-10-08T22:31:01.593Z,53.31
2022-10-08T22:33:29.714Z,54.11
2022-10-08T22:36:00.816Z,54.57
2022-10-08T22:38:28.540Z,53.57
2022-10-08T22:41:01.639Z,54.08
2022-10-08T22:43:29.450Z,53.90
2022-10-08T22:46:02.031Z,52.94
2022-10-08T22:48:29.833Z,54.14
2022-10-08T22:51:01.715Z,53.78
2022-10-08T22:53:29.822Z,53.65
2022-10-08T22:55:57.676Z,53.62
2022-10-08T22:58:25.503Z,53.72
2022-10-08T23:01:01.501Z,53.43
2022-10-08T23:03:29.751Z,54.53
2022-10-08T23:06:01.335Z,53.86
2022-10-08T23:08:29.102Z,54.33
2022-10-08T23:10:57.241Z,55.25
2022-10-08T23:13:25.010Z,55.47
2022-10-08T23:15:59.302Z,55.33
2022-10-08T23:18:28.415Z,56.76
2022-10-08T23:20:56.246Z,56.79
2022-10-08T23:23:24.204Z,56.42
2022-10-08T23:25:54.997Z,55.85
2022-10-08T23:28:22.890Z,56.32
2022-10-08T23:30:50.970Z,55.92
2022-10-08T23:33:19.171Z,54.91
2022-10-08T23:35:54.415Z,57.10
2022-10-08T23:38:22.482Z,57.13
2022-10-08T23:40:50.185Z,57.31
2022-10-08T23:43:17.928Z,54.77
2022-10-08T23:45:45.789Z,55.44
2022-10-08T23:48:13.632Z,57.07
2022-10-08T23:50:41.352Z,57.83
2022-10-08T23:53:10.659Z,56.35
2022-10-08T23:55:38.327Z,55.64
2022-10-08T23:58:06.175Z,53.99
